Chatteris, United Kingdom
Current Conditions -  °F | °C
As of 7:50 PM on Monday 24 Nov 2014 (Local Time) from EGSC Reporting Station
Light Fog Light Fog  
Wind Chill: 37°   Ceiling: Unl
Heat Index: 37°   Visibility: 0.93mi
Dew Point: 36°   Wind: 0mph
Humidity: 93%   Direction: NA
Pressure: 30.33"   Gusts: NA
Location:  52.45°N, 0.05°E
Report Text: EGSC 241950Z 00000KT 1500 R23/1000D R05/1000D PRFG NSC 03/02 Q1027
Loading
Personal Weather Stations






























Interactive Weather Map New forecast layout! Learn more

10-Day Weather Forecast

Advertisements
Track Severe Weather on mobile